Time;durP1;ratioP1;P1;durP2;ratioP2;P2;SDS_P1;SDS_P2;PMS_P1;PMS_P2;Temp;Humidity;BMP_temperature;BMP_pressure;BME280_temperature;BME280_humidity;BME280_pressure;Samples;Min_cycle;Max_cycle;Signal;HPM_P1;HPM_P2
2022/09/22 00:01:16;;;;;;;4.13;2.40;;;;;;;5.86;100.00;96934.94;5037790;28;20237;-69
2022/09/22 00:03:46;;;;;;;3.17;1.93;;;;;;;5.77;100.00;96933.94;5037083;28;20235;-68
2022/09/22 00:06:14;;;;;;;2.77;1.77;;;;;;;5.82;100.00;96939.59;5037797;28;20209;-69
2022/09/22 00:08:43;;;;;;;2.93;1.90;;;;;;;5.78;100.00;96942.59;5037906;28;20228;-69
2022/09/22 00:11:15;;;;;;;4.47;2.40;;;;;;;5.84;100.00;96940.31;5037685;28;20313;-69
2022/09/22 00:13:44;;;;;;;3.23;1.90;;;;;;;5.86;100.00;96935.78;5037020;28;20254;-70
2022/09/22 00:16:13;;;;;;;4.93;2.40;;;;;;;5.82;100.00;96929.16;5037627;28;20208;-69
2022/09/22 00:18:40;;;;;;;2.43;1.90;;;;;;;5.76;100.00;96926.22;5036846;28;20705;-69
2022/09/22 00:21:08;;;;;;;4.00;1.90;;;;;;;5.86;100.00;96924.50;5037932;28;20213;-69
2022/09/22 00:23:35;;;;;;;3.60;2.13;;;;;;;5.82;100.00;96920.50;5036781;28;20251;-69
2022/09/22 00:26:05;;;;;;;4.50;1.70;;;;;;;5.86;100.00;96921.88;5036791;28;20201;-69
2022/09/22 00:28:33;;;;;;;3.60;2.10;;;;;;;5.79;100.00;96923.34;5037534;28;20225;-70
2022/09/22 00:31:04;;;;;;;4.17;1.97;;;;;;;5.87;100.00;96920.88;5038175;28;20229;-69
2022/09/22 00:33:30;;;;;;;3.37;1.87;;;;;;;5.70;100.00;96918.88;5036674;28;20201;-69
2022/09/22 00:35:57;;;;;;;3.43;1.93;;;;;;;5.57;100.00;96918.25;5034507;28;20216;-69
2022/09/22 00:38:24;;;;;;;2.63;1.90;;;;;;;5.52;100.00;96915.22;5037232;28;20654;-69
2022/09/22 00:40:50;;;;;;;3.40;1.73;;;;;;;5.48;100.00;96912.00;5037455;28;20220;-69
2022/09/22 00:43:20;;;;;;;4.57;1.77;;;;;;;5.52;100.00;96915.22;5036199;28;20348;-69
2022/09/22 00:45:52;;;;;;;3.93;1.70;;;;;;;5.56;100.00;96912.22;5037352;28;20693;-69
2022/09/22 00:48:21;;;;;;;2.93;2.20;;;;;;;5.69;100.00;96911.97;5036802;28;20320;-69
2022/09/22 00:50:49;;;;;;;7.23;2.23;;;;;;;5.70;100.00;96900.56;5036688;28;20205;-70
2022/09/22 00:53:18;;;;;;;2.80;2.03;;;;;;;5.71;100.00;96899.63;5036312;28;20197;-69
2022/09/22 00:55:48;;;;;;;2.37;1.80;;;;;;;5.65;100.00;96893.13;5036907;28;20643;-69
2022/09/22 00:58:18;;;;;;;3.83;2.03;;;;;;;5.59;100.00;96900.66;5036967;28;20594;-69
2022/09/22 01:00:45;;;;;;;6.83;1.93;;;;;;;5.56;100.00;96904.38;5036272;28;20205;-68
2022/09/22 01:03:16;;;;;;;7.17;2.10;;;;;;;5.51;100.00;96905.69;5036065;28;20604;-69
2022/09/22 01:05:45;;;;;;;3.70;2.30;;;;;;;5.39;100.00;96895.47;5036428;28;20201;-69
2022/09/22 01:08:13;;;;;;;3.63;2.30;;;;;;;5.38;100.00;96894.63;5036176;28;20205;-69
2022/09/22 01:10:39;;;;;;;3.87;1.97;;;;;;;5.33;100.00;96891.59;5037082;28;20216;-69
2022/09/22 01:13:18;;;;;;;3.70;2.17;;;;;;;5.47;100.00;96892.09;5035349;28;21154;-69
2022/09/22 01:15:53;;;;;;;3.50;2.27;;;;;;;5.33;100.00;96888.97;5036185;28;20258;-69
2022/09/22 01:18:29;;;;;;;7.43;2.30;;;;;;;5.32;100.00;96887.34;5036402;28;20232;-69
2022/09/22 01:21:20;;;;;;;2.73;2.07;;;;;;;5.52;100.00;96889.06;5038233;28;20205;-69
2022/09/22 01:24:19;;;;;;;3.30;1.83;;;;;;;5.57;100.00;96881.66;5024143;28;20225;-68
2022/09/22 01:27:25;;;;;;;3.47;2.03;;;;;;;5.57;100.00;96879.06;5040393;28;20209;-69
2022/09/22 01:30:18;;;;;;;3.93;2.20;;;;;;;5.41;100.00;96880.47;5035463;28;20232;-69
2022/09/22 01:32:56;;;;;;;3.77;2.27;;;;;;;5.26;100.00;96884.41;5040217;28;20198;-69
2022/09/22 01:35:29;;;;;;;4.43;2.40;;;;;;;5.28;100.00;96882.47;5038145;28;20212;-69
2022/09/22 01:38:04;;;;;;;4.67;2.93;;;;;;;5.37;100.00;96879.91;5039539;28;20224;-69
2022/09/22 01:40:37;;;;;;;3.33;1.93;;;;;;;5.37;100.00;96881.72;5040326;28;20227;-68
2022/09/22 01:43:13;;;;;;;3.13;1.93;;;;;;;5.36;100.00;96882.66;5039471;28;20717;-69
2022/09/22 01:45:45;;;;;;;2.97;2.00;;;;;;;5.35;100.00;96887.06;5039543;28;20632;-68
2022/09/22 01:48:18;;;;;;;3.07;2.13;;;;;;;5.36;100.00;96877.44;5040207;28;20736;-69
2022/09/22 01:50:47;;;;;;;3.70;2.33;;;;;;;5.29;100.00;96878.91;5039930;28;20232;-68
2022/09/22 01:53:18;;;;;;;3.93;2.27;;;;;;;5.26;100.00;96877.38;5039001;28;20205;-68
2022/09/22 01:55:48;;;;;;;3.03;1.93;;;;;;;5.20;100.00;96872.69;5040775;28;20208;-69
2022/09/22 01:58:18;;;;;;;7.43;2.40;;;;;;;5.20;100.00;96877.09;5040178;28;20201;-69
2022/09/22 02:00:51;;;;;;;5.43;2.63;;;;;;;5.12;100.00;96885.56;5044105;28;20228;-68
2022/09/22 02:03:23;;;;;;;4.60;2.67;;;;;;;5.18;100.00;96890.28;5043434;28;20300;-68
2022/09/22 02:05:54;;;;;;;4.73;2.57;;;;;;;5.28;100.00;96891.13;5043755;28;20197;-69
2022/09/22 02:08:30;;;;;;;7.97;2.63;;;;;;;5.39;100.00;96879.81;5043471;28;20232;-68
2022/09/22 02:11:02;;;;;;;4.80;2.80;;;;;;;5.30;100.00;96880.59;5043133;28;20208;-69
2022/09/22 02:13:29;;;;;;;4.27;2.40;;;;;;;5.30;100.00;96884.00;5043471;28;20225;-69
2022/09/22 02:16:00;;;;;;;5.30;2.67;;;;;;;5.37;100.00;96877.28;5041469;28;20212;-69
2022/09/22 02:18:31;;;;;;;5.10;2.90;;;;;;;5.32;100.00;96878.66;5042796;28;20220;-69
2022/09/22 02:20:58;;;;;;;6.17;3.13;;;;;;;5.35;100.00;96879.22;5042699;28;20735;-69
2022/09/22 02:23:24;;;;;;;5.77;2.90;;;;;;;5.29;100.00;96881.53;5042662;28;20634;-69
2022/09/22 02:25:53;;;;;;;5.57;3.00;;;;;;;5.32;100.00;96876.88;5042380;28;20212;-69
2022/09/22 02:28:21;;;;;;;7.40;3.30;;;;;;;5.27;100.00;96881.66;5041615;28;20232;-69
2022/09/22 02:30:50;;;;;;;6.00;3.10;;;;;;;5.34;100.00;96880.19;5042160;28;20691;-69
2022/09/22 02:33:21;;;;;;;4.17;2.67;;;;;;;5.26;100.00;96880.00;5041174;28;20198;-68
2022/09/22 02:35:55;;;;;;;6.10;3.53;;;;;;;5.28;100.00;96877.25;5039814;28;20216;-68
2022/09/22 02:38:31;;;;;;;5.30;2.97;;;;;;;5.33;100.00;96875.91;5041708;28;20303;-68
2022/09/22 02:41:03;;;;;;;7.37;3.60;;;;;;;5.27;100.00;96873.84;5042542;28;20211;-68
2022/09/22 02:43:35;;;;;;;5.90;3.40;;;;;;;5.25;100.00;96867.91;5041531;28;20740;-69
2022/09/22 02:46:09;;;;;;;4.57;2.83;;;;;;;5.29;100.00;96871.91;5042656;28;20772;-68
2022/09/22 02:48:42;;;;;;;5.50;3.47;;;;;;;5.33;100.00;96867.25;5042920;28;20228;-68
2022/09/22 02:51:09;;;;;;;5.90;3.63;;;;;;;5.21;100.00;96869.09;5043451;28;20208;-68
2022/09/22 02:53:36;;;;;;;8.33;3.60;;;;;;;5.20;100.00;96862.22;5043627;28;20573;-69
2022/09/22 02:56:03;;;;;;;8.30;3.40;;;;;;;5.21;100.00;96869.09;5044136;28;20201;-68
2022/09/22 02:58:30;;;;;;;8.00;3.80;;;;;;;5.18;100.00;96866.78;5042524;28;20617;-68
2022/09/22 03:00:56;;;;;;;7.43;3.83;;;;;;;5.18;100.00;96874.59;5043752;28;20304;-68
2022/09/22 03:03:23;;;;;;;7.60;4.23;;;;;;;5.13;100.00;96866.31;5043874;28;20240;-68
2022/09/22 03:05:51;;;;;;;7.67;3.87;;;;;;;5.19;100.00;96864.97;5043133;28;20205;-68
2022/09/22 03:08:17;;;;;;;5.97;3.33;;;;;;;5.09;100.00;96869.31;5042927;28;20228;-68
2022/09/22 03:10:44;;;;;;;7.07;3.80;;;;;;;4.92;100.00;96868.09;5043564;28;20980;-68
2022/09/22 03:13:10;;;;;;;5.40;3.27;;;;;;;4.98;100.00;96870.22;5042792;28;20206;-68
2022/09/22 03:15:36;;;;;;;6.23;3.60;;;;;;;4.93;100.00;96868.94;5044157;28;20213;-68
2022/09/22 03:18:03;;;;;;;6.80;3.07;;;;;;;4.91;100.00;96871.69;5043478;28;20212;-68
2022/09/22 03:20:30;;;;;;;7.50;3.87;;;;;;;4.94;100.00;96868.81;5043425;28;20736;-68
2022/09/22 03:22:58;;;;;;;7.20;3.93;;;;;;;4.98;100.00;96878.03;5042228;28;20205;-69
2022/09/22 03:25:24;;;;;;;6.33;4.03;;;;;;;4.82;100.00;96872.44;5044240;28;20209;-68
2022/09/22 03:27:51;;;;;;;7.37;4.17;;;;;;;4.88;100.00;96866.69;5044082;28;20274;-68
2022/09/22 03:30:17;;;;;;;8.73;4.20;;;;;;;4.92;100.00;96870.72;5043128;28;20228;-68
2022/09/22 03:32:44;;;;;;;8.07;4.27;;;;;;;4.83;100.00;96863.63;5043674;28;20212;-68
2022/09/22 03:35:10;;;;;;;5.90;3.63;;;;;;;4.87;100.00;96869.44;5042132;28;20212;-68
2022/09/22 03:37:37;;;;;;;8.43;4.70;;;;;;;4.86;100.00;96867.78;5043542;28;20209;-69
2022/09/22 03:40:05;;;;;;;7.30;4.07;;;;;;;4.95;100.00;96867.88;5043354;28;20225;-68
2022/09/22 03:42:34;;;;;;;6.87;3.77;;;;;;;4.89;100.00;96873.59;5044277;28;20193;-68
2022/09/22 03:45:00;;;;;;;6.60;3.80;;;;;;;4.85;100.00;96871.38;5042984;28;20229;-68
2022/09/22 03:47:27;;;;;;;7.90;3.87;;;;;;;4.75;100.00;96873.09;5044601;28;20205;-68
2022/09/22 03:49:53;;;;;;;7.57;3.83;;;;;;;4.82;100.00;96881.22;5043917;28;20236;-68
2022/09/22 03:52:20;;;;;;;9.53;3.80;;;;;;;4.78;100.00;96866.78;5044130;28;20201;-68
2022/09/22 03:54:47;;;;;;;6.23;3.40;;;;;;;4.87;100.00;96859.84;5043945;28;20205;-69
2022/09/22 03:57:14;;;;;;;10.50;3.87;;;;;;;4.85;100.00;96869.56;5043064;28;20612;-68
2022/09/22 03:59:41;;;;;;;8.43;3.63;;;;;;;4.83;100.00;96866.25;5043759;28;20225;-68
2022/09/22 04:02:07;;;;;;;6.17;3.70;;;;;;;4.85;100.00;96871.38;5043862;28;20205;-68
2022/09/22 04:04:34;;;;;;;8.87;3.50;;;;;;;4.89;100.00;96867.56;5043675;28;20324;-68
2022/09/22 04:07:02;;;;;;;7.97;3.70;;;;;;;4.85;100.00;96866.97;5043479;28;21211;-68
2022/09/22 04:09:28;;;;;;;9.83;3.97;;;;;;;4.92;100.00;96873.31;5043663;28;20249;-68
2022/09/22 04:11:55;;;;;;;5.47;3.17;;;;;;;4.92;100.00;96868.09;5042235;28;20209;-68
2022/09/22 04:14:22;;;;;;;8.33;3.97;;;;;;;4.89;100.00;96876.19;5043634;28;20190;-68
2022/09/22 04:16:49;;;;;;;7.33;3.30;;;;;;;4.85;100.00;96877.41;5043378;28;20217;-69
2022/09/22 04:19:15;;;;;;;9.10;3.73;;;;;;;4.82;100.00;96881.22;5043879;28;20217;-69
2022/09/22 04:21:42;;;;;;;5.93;3.40;;;;;;;4.73;100.00;96884.59;5042750;28;20201;-68
2022/09/22 04:24:10;;;;;;;7.23;3.13;;;;;;;4.74;100.00;96879.25;5043183;28;20252;-68
2022/09/22 04:26:37;;;;;;;6.77;3.80;;;;;;;4.82;100.00;96878.63;5043198;28;20213;-68
2022/09/22 04:29:03;;;;;;;11.10;4.07;;;;;;;4.80;100.00;96872.69;5043522;28;20229;-68
2022/09/22 04:31:31;;;;;;;5.97;3.63;;;;;;;4.87;100.00;96878.13;5043017;28;20578;-68
2022/09/22 04:33:58;;;;;;;14.60;4.07;;;;;;;4.86;100.00;96884.28;5038985;28;20196;-68
2022/09/22 04:36:24;;;;;;;6.57;3.50;;;;;;;4.92;100.00;96872.50;5043314;28;20194;-68
2022/09/22 04:38:51;;;;;;;7.33;4.07;;;;;;;4.90;100.00;96869.19;5043537;28;20236;-68
2022/09/22 04:41:18;;;;;;;6.03;3.87;;;;;;;4.87;100.00;96870.28;5042768;28;20206;-68
2022/09/22 04:43:44;;;;;;;7.63;3.70;;;;;;;4.90;100.00;96877.88;5042875;28;20394;-68
2022/09/22 04:46:10;;;;;;;11.03;4.47;;;;;;;4.87;100.00;96875.50;5042618;28;20212;-68
2022/09/22 04:48:38;;;;;;;7.10;4.23;;;;;;;4.83;100.00;96878.50;5042623;28;20584;-68
2022/09/22 04:51:05;;;;;;;6.80;3.33;;;;;;;4.88;100.00;96871.94;5043334;28;20216;-69
2022/09/22 04:53:31;;;;;;;10.20;4.47;;;;;;;4.90;100.00;96869.19;5042410;28;20208;-68
2022/09/22 04:55:58;;;;;;;6.60;3.87;;;;;;;4.89;100.00;96878.00;5043635;28;20205;-68
2022/09/22 04:58:24;;;;;;;8.77;4.27;;;;;;;4.83;100.00;96873.28;5042719;28;20228;-69
2022/09/22 05:00:54;;;;;;;7.03;4.10;;;;;;;4.80;100.00;96877.91;5043611;28;20216;-68
2022/09/22 05:03:21;;;;;;;7.00;3.57;;;;;;;4.68;100.00;96881.53;5043270;28;20209;-68
2022/09/22 05:05:49;;;;;;;11.07;4.10;;;;;;;4.84;100.00;96888.00;5043430;28;20204;-68
2022/09/22 05:08:15;;;;;;;8.37;4.00;;;;;;;4.70;100.00;96892.66;5042966;28;20689;-68
2022/09/22 05:10:42;;;;;;;9.07;4.70;;;;;;;4.64;100.00;96885.34;5043438;28;20298;-68
2022/09/22 05:13:11;;;;;;;10.57;4.97;;;;;;;4.59;100.00;96890.94;5042690;28;20204;-68
2022/09/22 05:15:37;;;;;;;7.33;3.80;;;;;;;4.59;100.00;96882.28;5043163;28;20292;-68
2022/09/22 05:18:03;;;;;;;10.57;4.23;;;;;;;4.68;100.00;96890.19;5041358;28;20212;-68
2022/09/22 05:20:30;;;;;;;7.00;3.97;;;;;;;4.60;100.00;96889.19;5042075;28;20244;-68
2022/09/22 05:22:58;;;;;;;7.20;3.93;;;;;;;4.78;100.00;96892.88;5042545;28;20205;-68
2022/09/22 05:25:25;;;;;;;6.77;3.57;;;;;;;4.66;100.00;96893.88;5041908;28;20221;-68
2022/09/22 05:27:53;;;;;;;8.93;3.90;;;;;;;4.74;100.00;96891.50;5042118;28;20666;-68
2022/09/22 05:30:21;;;;;;;6.73;3.80;;;;;;;4.75;100.00;96898.34;5042117;28;20589;-68
2022/09/22 05:32:48;;;;;;;9.57;4.27;;;;;;;4.85;100.00;96894.88;5042139;28;20698;-69
2022/09/22 05:35:17;;;;;;;7.77;3.83;;;;;;;4.90;100.00;96900.50;5042832;28;20694;-69
2022/09/22 05:37:44;;;;;;;6.80;4.00;;;;;;;5.00;100.00;96890.97;5042180;28;20205;-69
2022/09/22 05:40:12;;;;;;;7.83;4.10;;;;;;;5.06;100.00;96891.28;5038236;28;20229;-68
2022/09/22 05:42:40;;;;;;;8.80;4.87;;;;;;;5.11;100.00;96893.53;5035907;28;20213;-68
2022/09/22 05:45:08;;;;;;;10.40;4.17;;;;;;;5.17;100.00;96883.41;5036151;28;20248;-69
2022/09/22 05:47:35;;;;;;;10.30;4.10;;;;;;;5.26;100.00;96884.41;5035876;28;20202;-69
2022/09/22 05:50:01;;;;;;;9.80;4.33;;;;;;;5.34;100.00;96885.41;5035578;28;20228;-68
2022/09/22 05:52:27;;;;;;;8.80;4.27;;;;;;;5.44;100.00;96873.22;5036013;28;20213;-68
2022/09/22 05:54:54;;;;;;;10.20;5.63;;;;;;;5.49;100.00;96884.13;5035860;28;20776;-68
2022/09/22 05:57:26;;;;;;;11.07;4.73;;;;;;;5.70;100.00;96884.88;5036348;28;20591;-68
2022/09/22 05:59:52;;;;;;;19.43;4.70;;;;;;;5.67;100.00;96872.09;5036289;28;20232;-68
2022/09/22 06:02:19;;;;;;;9.23;4.47;;;;;;;5.71;100.00;96881.31;5035794;28;20209;-68
2022/09/22 06:04:46;;;;;;;9.57;5.23;;;;;;;5.80;100.00;96875.31;5036183;28;20285;-68
2022/09/22 06:07:13;;;;;;;7.20;4.30;;;;;;;5.86;100.00;96872.19;5036475;28;20209;-68
2022/09/22 06:09:39;;;;;;;9.77;4.30;;;;;;;5.96;100.00;96886.09;5035891;28;20229;-68
2022/09/22 06:12:07;;;;;;;11.87;4.77;;;;;;;6.07;100.00;96885.03;5035765;28;20216;-67
2022/09/22 06:14:35;;;;;;;8.17;4.93;;;;;;;6.19;100.00;96881.34;5035496;28;20193;-68
2022/09/22 06:17:02;;;;;;;8.07;4.70;;;;;;;6.19;100.00;96883.97;5035684;28;20205;-68
2022/09/22 06:19:28;;;;;;;8.80;4.57;;;;;;;6.29;100.00;96884.81;5036097;28;20221;-68
2022/09/22 06:21:55;;;;;;;9.23;5.03;;;;;;;6.49;100.00;96883.03;5036453;28;20202;-68
2022/09/22 06:24:22;;;;;;;8.07;4.60;;;;;;;6.62;100.00;96887.06;5034561;28;20248;-68
2022/09/22 06:26:49;;;;;;;8.27;4.63;;;;;;;6.76;100.00;96886.66;5036183;28;20431;-68
2022/09/22 06:29:16;;;;;;;9.47;5.20;;;;;;;6.89;100.00;96882.75;5036312;28;20224;-68
2022/09/22 06:31:45;;;;;;;9.00;5.17;;;;;;;7.14;100.00;96884.81;5035365;28;20266;-68
2022/09/22 06:34:11;;;;;;;9.03;5.07;;;;;;;7.13;100.00;96891.03;5032971;28;20201;-68
2022/09/22 06:36:41;;;;;;;12.90;5.57;;;;;;;7.34;100.00;96886.41;5035477;28;20205;-68
2022/09/22 06:39:09;;;;;;;13.03;5.03;;;;;;;7.32;100.00;96880.50;5036115;28;20229;-68
2022/09/22 06:41:35;;;;;;;9.07;5.30;;;;;;;7.41;100.00;96885.72;5035687;28;20197;-69
2022/09/22 06:44:02;;;;;;;7.67;4.77;;;;;;;7.58;100.00;96882.34;5034349;28;20212;-68
2022/09/22 06:46:31;;;;;;;9.23;5.10;;;;;;;7.76;100.00;96879.78;5037704;28;20216;-68
2022/09/22 06:49:00;;;;;;;11.37;5.10;;;;;;;7.92;100.00;96873.78;5039147;28;20255;-68
2022/09/22 06:51:29;;;;;;;9.27;5.10;;;;;;;7.98;100.00;96881.06;5039425;28;20205;-68
2022/09/22 06:53:56;;;;;;;9.90;5.90;;;;;;;8.03;100.00;96875.38;5039401;28;20737;-68
2022/09/22 06:56:23;;;;;;;7.73;4.87;;;;;;;8.15;100.00;96879.50;5038924;28;20201;-69
2022/09/22 06:58:50;;;;;;;8.80;4.77;;;;;;;8.24;100.00;96876.81;5039344;28;20225;-68
2022/09/22 07:01:17;;;;;;;10.20;4.70;;;;;;;8.34;100.00;96874.13;5038888;28;20201;-68
2022/09/22 07:03:44;;;;;;;12.20;4.90;;;;;;;8.47;100.00;96872.78;5038126;28;20327;-68
2022/09/22 07:06:17;;;;;;;8.60;4.40;;;;;;;8.59;100.00;96882.94;5038292;28;20320;-69
2022/09/22 07:08:46;;;;;;;8.10;4.50;;;;;;;8.63;100.00;96879.03;5040210;28;20732;-69
2022/09/22 07:11:16;;;;;;;9.77;4.33;;;;;;;8.72;100.00;96883.41;5038602;28;20224;-69
2022/09/22 07:13:44;;;;;;;8.17;4.30;;;;;;;8.74;100.00;96877.97;5032959;28;20657;-69
2022/09/22 07:16:12;;;;;;;9.90;4.40;;;;;;;8.88;100.00;96882.72;5037707;28;20258;-69
2022/09/22 07:18:40;;;;;;;6.93;4.17;;;;;;;9.10;100.00;96872.56;5037504;28;20633;-70
2022/09/22 07:21:09;;;;;;;9.43;4.97;;;;;;;9.13;100.00;96874.88;5037767;28;20254;-70
2022/09/22 07:23:37;;;;;;;6.97;4.47;;;;;;;9.19;100.00;96867.19;5037075;28;20561;-70
2022/09/22 07:26:05;;;;;;;8.33;5.00;;;;;;;9.22;100.00;96871.31;5037674;28;20236;-69
2022/09/22 07:28:34;;;;;;;8.57;4.83;;;;;;;9.27;100.00;96871.69;5036844;28;20232;-70
2022/09/22 07:31:04;;;;;;;7.30;4.13;;;;;;;9.24;100.00;96869.34;5037797;28;20212;-70
2022/09/22 07:33:31;;;;;;;8.50;3.87;;;;;;;9.30;100.00;96874.00;5035985;28;20201;-69
2022/09/22 07:36:07;;;;;;;9.03;4.53;;;;;;;9.39;100.00;96876.53;5035618;28;20220;-69
2022/09/22 07:38:35;;;;;;;7.00;3.83;;;;;;;9.56;100.00;96874.84;5043193;28;20267;-69
2022/09/22 07:41:05;;;;;;;8.40;4.33;;;;;;;9.77;100.00;96876.13;5043942;28;20735;-70
2022/09/22 07:43:32;;;;;;;9.30;4.17;;;;;;;9.74;100.00;96874.63;5043346;28;20201;-70
2022/09/22 07:45:59;;;;;;;12.03;4.20;;;;;;;9.78;100.00;96869.88;5043408;28;20624;-70
2022/09/22 07:48:40;;;;;;;7.37;3.97;;;;;;;9.94;100.00;96873.41;5043372;28;20225;-70
2022/09/22 07:51:09;;;;;;;8.57;3.93;;;;;;;10.13;100.00;96872.34;5043220;28;20676;-70
2022/09/22 07:53:36;;;;;;;8.83;4.30;;;;;;;10.04;100.00;96871.53;5043888;28;20241;-69
2022/09/22 07:56:08;;;;;;;6.73;3.87;;;;;;;10.28;99.03;96871.59;5042118;28;20213;-69
2022/09/22 07:58:35;;;;;;;7.60;3.53;;;;;;;10.31;96.87;96862.53;5043707;28;20223;-70
2022/09/22 08:01:06;;;;;;;6.47;3.47;;;;;;;10.54;98.81;96869.72;5037849;28;20205;-69
2022/09/22 08:03:32;;;;;;;7.47;3.50;;;;;;;10.49;100.00;96872.81;5036241;28;20204;-69
2022/09/22 08:06:09;;;;;;;6.93;4.13;;;;;;;10.63;99.65;96874.00;5036450;28;20705;-70
2022/09/22 08:08:38;;;;;;;5.93;3.40;;;;;;;10.76;96.38;96871.72;5032243;28;20279;-70
2022/09/22 08:11:08;;;;;;;8.00;3.73;;;;;;;10.99;98.23;96868.28;5036521;28;20648;-69
2022/09/22 08:13:35;;;;;;;7.47;3.40;;;;;;;10.95;98.19;96869.59;5034996;28;20204;-69
2022/09/22 08:16:03;;;;;;;4.80;3.03;;;;;;;11.11;95.01;96870.44;5036253;28;20213;-69
2022/09/22 08:18:30;;;;;;;7.30;3.87;;;;;;;11.14;92.90;96870.09;5036242;28;20217;-69
2022/09/22 08:20:59;;;;;;;9.07;3.70;;;;;;;11.25;94.98;96867.13;5035832;28;20213;-69
2022/09/22 08:23:26;;;;;;;4.17;2.60;;;;;;;11.25;95.25;96867.13;5031241;28;20206;-69
2022/09/22 08:25:52;;;;;;;7.17;3.63;;;;;;;11.38;94.35;96861.31;5036920;28;20225;-69
2022/09/22 08:28:20;;;;;;;6.37;3.27;;;;;;;11.53;92.16;96865.78;5035700;28;20221;-69
2022/09/22 08:30:47;;;;;;;8.67;3.47;;;;;;;11.54;91.09;96856.06;5036264;28;20201;-69
2022/09/22 08:33:15;;;;;;;8.50;3.60;;;;;;;11.73;92.74;96856.50;5035489;28;20220;-70
2022/09/22 08:35:52;;;;;;;7.03;3.37;;;;;;;11.95;91.63;96853.97;5034070;28;20216;-69
2022/09/22 08:38:19;;;;;;;8.07;3.10;;;;;;;11.91;93.42;96851.84;5034834;28;20270;-69
2022/09/22 08:40:58;;;;;;;6.67;3.27;;;;;;;12.11;92.85;96851.25;5035683;28;21198;-69
2022/09/22 08:43:30;;;;;;;5.90;3.70;;;;;;;12.11;93.17;96850.47;5034364;28;20197;-70
2022/09/22 08:45:58;;;;;;;3.80;2.80;;;;;;;12.30;89.20;96850.84;5034920;28;20249;-70
2022/09/22 08:54:03;;;;;;;5.87;2.97;;;;;;;12.70;88.98;96846.16;5033557;28;20231;-70
2022/09/22 08:56:35;;;;;;;6.03;2.73;;;;;;;12.85;88.33;96849.69;5035354;28;20193;-70
2022/09/22 08:59:09;;;;;;;4.83;3.20;;;;;;;12.95;84.67;96845.84;5034978;28;20228;-70
2022/09/22 09:01:51;;;;;;;5.75;2.50;;;;;;;12.95;82.60;96848.47;5033817;28;20232;-69
2022/09/22 09:04:44;;;;;;;4.47;2.70;;;;;;;13.04;82.82;96846.59;5030686;28;20197;-69
2022/09/22 09:07:15;;;;;;;4.10;2.17;;;;;;;13.20;79.80;96842.00;5034768;28;20582;-70
2022/09/22 09:09:56;;;;;;;4.80;2.07;;;;;;;13.28;77.62;96833.19;5035326;28;20255;-70
2022/09/22 09:12:53;;;;;;;2.63;1.80;;;;;;;13.37;79.76;96837.41;5034148;28;20214;-69
2022/09/22 09:15:32;;;;;;;3.00;1.70;;;;;;;13.51;79.06;96832.94;5033714;28;20258;-70
2022/09/22 09:18:02;;;;;;;4.33;2.03;;;;;;;13.72;75.88;96835.72;5035158;28;20288;-70
2022/09/22 09:20:37;;;;;;;4.25;2.08;;;;;;;13.99;74.19;96841.19;5034910;28;21028;-69
2022/09/22 09:23:12;;;;;;;1.90;1.30;;;;;;;14.19;70.97;96831.72;5034892;28;20258;-70
2022/09/22 09:25:41;;;;;;;2.30;1.40;;;;;;;14.19;70.21;96833.53;5034982;28;20748;-69
2022/09/22 09:28:14;;;;;;;2.58;1.73;;;;;;;14.18;69.43;96839.88;5035793;28;20215;-70
2022/09/22 09:30:45;;;;;;;2.22;1.63;;;;;;;14.14;72.21;96833.25;5034972;28;21087;-69
2022/09/22 09:33:23;;;;;;;2.92;1.48;;;;;;;13.92;72.20;96831.50;5034409;28;20209;-69
2022/09/22 09:35:52;;;;;;;3.97;1.70;;;;;;;14.21;72.81;96832.34;5034993;28;21217;-70
2022/09/22 09:38:25;;;;;;;1.80;1.42;;;;;;;14.09;69.64;96828.53;5035517;28;20224;-70
2022/09/22 09:40:58;;;;;;;2.23;1.30;;;;;;;14.26;71.18;96832.59;5035019;28;20219;-70
2022/09/22 09:43:29;;;;;;;1.77;1.40;;;;;;;14.17;69.43;96833.72;5033801;28;20201;-70
2022/09/22 09:46:08;;;;;;;1.98;1.55;;;;;;;14.64;69.53;96826.94;5034292;28;20213;-69
2022/09/22 09:48:43;;;;;;;1.90;1.38;;;;;;;14.58;71.44;96828.72;5034915;28;20225;-70
2022/09/22 09:51:12;;;;;;;2.35;1.67;;;;;;;14.64;72.81;96826.94;5034933;28;20214;-70
2022/09/22 09:53:43;;;;;;;2.17;1.50;;;;;;;14.77;70.65;96820.97;5031624;28;20657;-69
2022/09/22 09:56:22;;;;;;;1.77;1.40;;;;;;;14.90;71.87;96816.59;5034313;28;20201;-70
2022/09/22 10:01:49;;;;;;;3.40;1.90;;;;;;;14.87;69.35;96817.00;5034855;28;21025;-70
2022/09/22 10:04:28;;;;;;;3.42;1.52;;;;;;;14.94;71.21;96812.59;5034496;28;20597;-70
2022/09/22 10:06:55;;;;;;;5.85;2.30;;;;;;;14.93;68.84;96810.94;5034862;28;20217;-69
2022/09/22 10:09:26;;;;;;;4.25;1.95;;;;;;;15.07;71.97;96807.38;5035375;28;20228;-70
2022/09/22 10:12:00;;;;;;;2.67;2.10;;;;;;;15.55;66.85;96806.56;5034360;28;21079;-71
2022/09/22 10:14:31;;;;;;;4.45;1.80;;;;;;;15.57;69.83;96804.56;5034903;28;20278;-70
2022/09/22 10:16:59;;;;;;;3.53;1.75;;;;;;;15.38;68.50;96807.88;5035788;28;20197;-70
2022/09/22 10:19:29;;;;;;;2.70;2.00;;;;;;;15.24;69.99;96805.31;5035423;28;20221;-70
2022/09/22 10:22:21;;;;;;;2.88;1.70;;;;;;;15.19;67.57;96805.84;5038101;28;20202;-70
2022/09/22 10:25:00;;;;;;;3.95;1.77;;;;;;;15.44;69.56;96796.47;5039781;28;20197;-70
2022/09/22 10:27:29;;;;;;;4.28;1.70;;;;;;;15.44;71.00;96794.66;5039315;28;20201;-70
2022/09/22 10:30:23;;;;;;;2.40;1.60;;;;;;;15.28;69.58;96802.06;5040225;28;20235;-70
2022/09/22 10:33:13;;;;;;;2.47;1.48;;;;;;;15.37;68.64;96799.06;5027936;28;20216;-70
2022/09/22 10:35:40;;;;;;;2.03;1.30;;;;;;;15.54;69.76;96796.97;5043776;28;20977;-70
2022/09/22 10:38:15;;;;;;;2.58;1.52;;;;;;;15.80;69.23;96789.19;5039615;28;20213;-69
2022/09/22 10:40:46;;;;;;;2.95;2.30;;;;;;;15.78;70.11;96791.19;5041058;28;20208;-70
2022/09/22 10:43:28;;;;;;;2.80;1.55;;;;;;;15.74;69.16;96784.63;5038567;28;20204;-70
2022/09/22 10:46:07;;;;;;;3.03;1.75;;;;;;;15.67;66.58;96789.06;5039067;28;20264;-71
2022/09/22 10:48:39;;;;;;;3.45;1.52;;;;;;;15.80;66.71;96783.88;5039273;28;20237;-70
2022/09/22 10:51:13;;;;;;;2.97;1.95;;;;;;;16.03;72.80;96779.88;5039325;28;20202;-70
2022/09/22 10:53:57;;;;;;;3.05;2.00;;;;;;;15.93;68.86;96788.22;5037929;28;20208;-70
2022/09/22 10:56:32;;;;;;;4.78;1.40;;;;;;;15.99;63.57;96779.47;5037550;28;20193;-70
2022/09/22 10:59:25;;;;;;;2.00;1.40;;;;;;;16.21;64.73;96785.50;5036524;28;20252;-69
2022/09/22 11:02:07;;;;;;;5.45;1.70;;;;;;;16.28;69.47;96786.38;5038069;28;20212;-70
2022/09/22 11:04:50;;;;;;;3.72;1.48;;;;;;;16.24;65.81;96782.44;5035395;28;20201;-70
2022/09/22 11:13:33;;;;;;;2.35;1.50;;;;;;;16.25;60.69;96784.88;5037157;28;20240;-71
2022/09/22 11:16:26;;;;;;;2.67;1.60;;;;;;;16.33;58.86;96792.75;5038405;28;20209;-70
2022/09/22 11:19:17;;;;;;;2.25;1.30;;;;;;;16.11;58.70;96783.19;5038595;28;20229;-71
2022/09/22 11:22:01;;;;;;;3.78;1.27;;;;;;;16.03;58.14;96783.34;5038430;28;20666;-70
2022/09/22 11:24:44;;;;;;;2.78;1.90;;;;;;;16.12;60.48;96787.50;5037499;28;20205;-71
2022/09/22 11:27:16;;;;;;;2.85;1.20;;;;;;;16.03;59.79;96779.88;5038497;28;20610;-71
2022/09/22 11:30:07;;;;;;;5.47;2.20;;;;;;;16.21;60.64;96786.31;5037846;28;20632;-71
2022/09/22 11:33:07;;;;;;;2.83;1.20;;;;;;;16.24;64.10;96775.28;5037962;28;20288;-71
2022/09/22 11:36:00;;;;;;;2.50;1.58;;;;;;;16.31;63.91;96772.69;5027118;28;20266;-71
2022/09/22 11:38:56;;;;;;;2.97;1.60;;;;;;;16.39;61.70;96760.00;5037521;28;20228;-71
2022/09/22 11:41:31;;;;;;;2.00;1.50;;;;;;;16.24;64.68;96767.31;5037214;28;20208;-70
2022/09/22 11:44:12;;;;;;;1.95;1.40;;;;;;;16.13;62.26;96765.22;5037452;28;20205;-70
2022/09/22 11:46:59;;;;;;;2.47;1.67;;;;;;;16.22;65.93;96760.56;5038686;28;20217;-70
2022/09/22 11:49:44;;;;;;;1.92;1.63;;;;;;;16.10;60.63;96765.63;5038574;28;20237;-70
2022/09/22 11:52:22;;;;;;;3.15;1.90;;;;;;;15.91;64.42;96758.38;5038274;28;20204;-70
2022/09/22 11:55:14;;;;;;;2.40;1.60;;;;;;;15.98;66.57;96753.88;5038103;28;20201;-70
2022/09/22 11:57:45;;;;;;;1.85;1.23;;;;;;;15.89;67.17;96748.94;5038470;28;20193;-70
2022/09/22 12:00:16;;;;;;;2.13;1.35;;;;;;;15.62;65.27;96751.66;5036092;28;20611;-70
2022/09/22 12:02:48;;;;;;;3.28;1.60;;;;;;;15.74;64.84;96752.75;5037063;28;20205;-70
2022/09/22 12:05:19;;;;;;;2.03;1.30;;;;;;;15.52;62.69;96745.88;5034461;28;20325;-69